LGIR/HER METAR and TAF weather

Enter ICAO airport designator
Station Type Date Time Source
LGIR METAR 2023/01/30 11:50 UTC NOAA

LGIR 301150Z 23004KT 9999 -RA FEW010 FEW018TCU BKN025 BKN080 10/09 Q1014 NOSIG


Station Type Date Time Source
LGIR Decoded METAR 2023/01/30 11:50 UTC NOAA

Heraklion Airport , Greece (LGIR) 35-20N 025-11E 39M
Jan 30, 2023 - 06:50 AM EST / 2023.01.30 1150 UTC
Wind: from the SW (230 degrees) at 5 MPH (4 KT):0
Visibility: greater than 7 mile(s):0
Sky conditions: mostly cloudy
Weather: light rain; Towering cumulus clouds observed
Temperature: 50 F (10 C)
Dew Point: 48 F (9 C)
Relative Humidity: 93%
Pressure (altimeter): 29.94 in. Hg (1014 hPa)
ob: LGIR 301150Z 23004KT 9999 -RA FEW010 FEW018TCU BKN025 BKN080 10/09 Q1014 NOSIG
cycle: 12

Station Type Date Time Source
LGIR TAF 2023/01/30 12:12 UTC NOAA

TAF LGIR 301100Z 3012/3112 VRB05KT 9999 FEW010 FEW018TCU BKN025 BKN080 PROB40
TEMPO 3012/3015 5000 RA
TEMPO 3012/3018 33010KT PROB30
TEMPO 3106/3112 5000 RA SCT010 FEW018TCU BKN020
BECMG 3107/3109 30012KT

Example: see airport list